Time;durP1;ratioP1;P1;durP2;ratioP2;P2;SDS_P1;SDS_P2;PMS_P1;PMS_P2;Temp;Humidity;BMP_temperature;BMP_pressure;BME280_temperature;BME280_humidity;BME280_pressure;Samples;Min_cycle;Max_cycle;Signal;HPM_P1;HPM_P2
2022/03/11 00:00:59;;;;;;;11.57;5.18;;;10.30;83.50;;;;;;4941958;28;20039;-67
2022/03/11 00:03:25;;;;;;;10.57;5.00;;;10.30;83.30;;;;;;4950961;28;20031;-67
2022/03/11 00:05:52;;;;;;;8.77;4.43;;;10.30;83.20;;;;;;4950844;28;20046;-67
2022/03/11 00:08:20;;;;;;;8.43;3.63;;;10.30;83.00;;;;;;4949195;28;20544;-68
2022/03/11 00:10:46;;;;;;;8.40;4.43;;;10.20;83.20;;;;;;4950817;28;20424;-67
2022/03/11 00:13:12;;;;;;;12.40;5.15;;;10.20;83.30;;;;;;4938517;29;20027;-67
2022/03/11 00:15:37;;;;;;;10.80;5.15;;;10.20;83.50;;;;;;4949526;28;20035;-67
2022/03/11 00:18:04;;;;;;;13.52;4.82;;;10.10;83.90;;;;;;4950809;28;20031;-67
2022/03/11 00:20:31;;;;;;;10.93;4.60;;;10.10;84.30;;;;;;4950429;28;20513;-67
2022/03/11 00:23:01;;;;;;;11.85;6.00;;;10.00;83.90;;;;;;4938071;28;20039;-67
2022/03/11 00:25:26;;;;;;;11.25;5.18;;;10.00;84.10;;;;;;4937452;28;20038;-67
2022/03/11 00:27:52;;;;;;;7.78;3.58;;;10.00;84.50;;;;;;4942584;28;20040;-67
2022/03/11 00:30:21;;;;;;;10.98;5.03;;;9.90;84.50;;;;;;4945165;28;20763;-67
2022/03/11 00:32:48;;;;;;;10.60;5.38;;;9.90;84.50;;;;;;4950505;28;20054;-67
2022/03/11 00:35:13;;;;;;;8.40;4.50;;;9.90;85.00;;;;;;4949721;28;20052;-67
2022/03/11 00:37:40;;;;;;;9.98;4.18;;;9.80;84.90;;;;;;4950145;28;20039;-67
2022/03/11 00:40:09;;;;;;;11.82;5.32;;;9.80;84.90;;;;;;4935950;28;20410;-67
2022/03/11 00:42:35;;;;;;;12.38;4.97;;;9.80;85.60;;;;;;4941009;28;20031;-67
2022/03/11 00:45:01;;;;;;;7.47;3.85;;;9.70;85.60;;;;;;4948790;28;20086;-69
2022/03/11 00:47:27;;;;;;;11.00;4.47;;;9.70;85.90;;;;;;4950453;28;20051;-69
2022/03/11 00:49:53;;;;;;;9.52;5.18;;;9.60;86.90;;;;;;4949753;28;20035;-70
2022/03/11 00:52:19;;;;;;;11.45;5.63;;;9.60;86.70;;;;;;4932961;28;20089;-69
2022/03/11 00:54:44;;;;;;;12.25;5.97;;;9.60;86.50;;;;;;4937707;28;20033;-70
2022/03/11 00:57:10;;;;;;;12.57;6.25;;;9.60;86.40;;;;;;4942406;28;20055;-69
2022/03/11 00:59:35;;;;;;;13.40;6.45;;;9.60;86.40;;;;;;4944050;28;20399;-69
2022/03/11 01:02:01;;;;;;;12.32;6.25;;;9.50;86.20;;;;;;4937751;28;20371;-69
2022/03/11 01:04:30;;;;;;;15.82;8.20;;;9.50;86.10;;;;;;4949909;28;20035;-69
2022/03/11 01:06:55;;;;;;;3.28;1.48;;;9.40;85.70;;;;;;4950002;28;20049;-69
2022/03/11 01:09:40;;;;;;;15.38;7.28;;;9.40;86.30;;;;;;4950013;28;20513;-69
2022/03/11 01:12:06;;;;;;;14.00;4.68;;;9.40;86.40;;;;;;4940474;28;20040;-69
2022/03/11 01:14:34;;;;;;;15.23;7.38;;;9.30;86.80;;;;;;4946335;28;20023;-69
2022/03/11 01:17:00;;;;;;;9.77;4.80;;;9.30;86.80;;;;;;4949838;28;20046;-69
2022/03/11 01:19:25;;;;;;;18.08;7.80;;;9.30;86.70;;;;;;4949596;28;20035;-70
2022/03/11 01:21:51;;;;;;;13.68;6.20;;;9.30;86.10;;;;;;4949996;28;20042;-70
2022/03/11 01:24:17;;;;;;;22.23;7.80;;;9.30;86.40;;;;;;4949222;28;20722;-69
2022/03/11 01:26:42;;;;;;;6.70;2.92;;;9.20;86.10;;;;;;4958173;28;20029;-69
2022/03/11 01:29:08;;;;;;;14.02;6.18;;;9.20;86.90;;;;;;5037908;28;20025;-69
2022/03/11 01:31:36;;;;;;;7.13;3.80;;;9.20;87.20;;;;;;5022077;28;20504;-69
2022/03/11 01:34:01;;;;;;;13.57;6.85;;;9.10;87.70;;;;;;4950058;28;20038;-69
2022/03/11 01:36:27;;;;;;;14.55;7.13;;;9.10;86.90;;;;;;4965980;28;20043;-69
2022/03/11 01:38:54;;;;;;;16.52;7.55;;;9.10;87.00;;;;;;4943234;28;20788;-69
2022/03/11 01:41:20;;;;;;;18.33;6.50;;;9.10;87.00;;;;;;4949751;28;20035;-70
2022/03/11 01:43:51;;;;;;;8.57;4.40;;;9.10;86.60;;;;;;4981500;28;20083;-69
2022/03/11 01:46:17;;;;;;;6.30;3.65;;;9.00;87.30;;;;;;4947147;28;20039;-69
2022/03/11 01:48:42;;;;;;;18.58;7.50;;;9.00;87.90;;;;;;4953288;28;20493;-69
2022/03/11 01:51:08;;;;;;;13.27;6.13;;;9.00;87.90;;;;;;4939107;28;20032;-69
2022/03/11 01:53:34;;;;;;;16.25;7.68;;;9.00;87.90;;;;;;4940328;28;20069;-69
2022/03/11 01:55:59;;;;;;;8.50;4.22;;;9.00;88.10;;;;;;4951366;28;20059;-69
2022/03/11 01:58:27;;;;;;;15.23;6.50;;;8.90;88.40;;;;;;4952699;28;20508;-69
2022/03/11 02:00:53;;;;;;;22.98;10.00;;;8.90;88.40;;;;;;4970401;28;20063;-70
2022/03/11 02:03:18;;;;;;;21.40;10.15;;;8.90;88.10;;;;;;4939598;28;20074;-69
2022/03/11 02:05:44;;;;;;;19.13;9.45;;;8.90;88.20;;;;;;4934028;28;20035;-69
2022/03/11 02:08:10;;;;;;;11.98;4.43;;;8.90;88.00;;;;;;4933171;28;20398;-69
2022/03/11 02:10:36;;;;;;;16.98;7.75;;;8.90;88.60;;;;;;4941058;28;20122;-69
2022/03/11 02:13:06;;;;;;;22.23;9.40;;;8.80;88.50;;;;;;4952403;28;20122;-69
2022/03/11 02:15:32;;;;;;;19.38;8.70;;;8.80;88.20;;;;;;4952355;28;20035;-71
2022/03/11 02:17:58;;;;;;;13.38;5.90;;;8.80;88.20;;;;;;4970312;28;20040;-69
2022/03/11 02:20:24;;;;;;;8.63;5.32;;;8.80;88.30;;;;;;4958068;28;20411;-69
2022/03/11 02:22:52;;;;;;;9.70;5.18;;;8.70;88.30;;;;;;4953233;28;20035;-69
2022/03/11 02:25:19;;;;;;;15.13;7.53;;;8.80;88.70;;;;;;4952419;28;20042;-69
2022/03/11 02:27:46;;;;;;;17.90;8.82;;;8.70;88.80;;;;;;4951843;28;20044;-70
2022/03/11 02:30:21;;;;;;;11.05;5.50;;;8.70;88.60;;;;;;4932766;29;20042;-69
2022/03/11 02:32:47;;;;;;;9.55;4.72;;;8.70;89.10;;;;;;4951183;28;20074;-69
2022/03/11 02:35:14;;;;;;;23.35;11.30;;;8.70;89.30;;;;;;4991381;28;20535;-69
2022/03/11 02:37:40;;;;;;;16.67;9.82;;;8.70;88.60;;;;;;4972398;28;20035;-69
2022/03/11 02:40:07;;;;;;;2.50;1.40;;;8.70;88.70;;;;;;4952619;28;20122;-69
2022/03/11 02:42:33;;;;;;;17.17;8.32;;;8.60;88.80;;;;;;4949477;28;20103;-69
2022/03/11 02:45:00;;;;;;;28.70;12.13;;;8.60;89.40;;;;;;4943167;28;20035;-69
2022/03/11 02:47:27;;;;;;;11.00;4.95;;;8.60;88.20;;;;;;4951383;28;20047;-69
2022/03/11 02:49:53;;;;;;;22.35;7.60;;;8.60;88.60;;;;;;4951534;28;20429;-69
2022/03/11 02:52:19;;;;;;;17.17;9.02;;;8.50;88.40;;;;;;4946665;28;20035;-69
2022/03/11 02:54:44;;;;;;;8.18;4.18;;;8.50;88.50;;;;;;4944011;28;20031;-69
2022/03/11 02:57:10;;;;;;;22.90;10.80;;;8.50;89.00;;;;;;4933976;28;20050;-69
2022/03/11 02:59:36;;;;;;;19.33;8.70;;;8.40;88.50;;;;;;4933276;28;20035;-69
2022/03/11 03:02:04;;;;;;;19.63;10.82;;;8.40;88.60;;;;;;4950734;28;20066;-69
2022/03/11 03:04:30;;;;;;;13.57;5.50;;;8.40;89.00;;;;;;4990115;28;20457;-69
2022/03/11 03:06:56;;;;;;;20.98;9.20;;;8.40;89.30;;;;;;4999534;28;20127;-69
2022/03/11 03:09:22;;;;;;;25.60;12.18;;;8.40;89.40;;;;;;4958433;28;20188;-69
2022/03/11 03:11:47;;;;;;;22.83;7.97;;;8.40;89.00;;;;;;5001509;28;20033;-69
2022/03/11 03:14:13;;;;;;;23.13;9.95;;;8.30;89.40;;;;;;4943138;28;20050;-70
2022/03/11 03:16:39;;;;;;;15.52;8.98;;;8.30;89.00;;;;;;4935261;28;20655;-69
2022/03/11 03:19:04;;;;;;;24.10;10.05;;;8.30;88.70;;;;;;4956946;28;20059;-69
2022/03/11 03:21:30;;;;;;;15.68;8.32;;;8.30;88.90;;;;;;4957385;28;20069;-69
2022/03/11 03:23:56;;;;;;;8.60;4.65;;;8.20;89.00;;;;;;4951723;28;20035;-69
2022/03/11 03:26:21;;;;;;;20.02;11.20;;;8.10;89.60;;;;;;4953008;28;20917;-69
2022/03/11 03:28:47;;;;;;;20.38;10.25;;;8.20;89.70;;;;;;4932592;28;20040;-69
2022/03/11 03:31:21;;;;;;;16.65;7.32;;;8.10;89.40;;;;;;4937287;28;20039;-69
2022/03/11 03:33:48;;;;;;;22.58;10.80;;;8.10;89.40;;;;;;4939680;28;20039;-69
2022/03/11 03:36:14;;;;;;;17.80;9.38;;;8.10;89.40;;;;;;5017544;28;20191;-69
2022/03/11 03:38:40;;;;;;;17.75;8.90;;;8.00;89.20;;;;;;4997741;28;20673;-69
2022/03/11 03:41:05;;;;;;;23.13;10.18;;;8.00;89.40;;;;;;4946642;28;20142;-69
2022/03/11 03:43:35;;;;;;;28.63;12.00;;;8.00;89.60;;;;;;4943392;28;20375;-69
2022/03/11 03:46:00;;;;;;;15.50;6.78;;;7.90;89.10;;;;;;4945536;28;20038;-69
2022/03/11 03:48:26;;;;;;;24.58;8.75;;;7.90;89.90;;;;;;4943476;28;20059;-69
2022/03/11 03:50:52;;;;;;;14.88;8.13;;;7.90;90.00;;;;;;4951396;28;20027;-69
2022/03/11 03:53:17;;;;;;;20.52;8.57;;;7.90;90.00;;;;;;4938834;28;20059;-69
2022/03/11 03:55:43;;;;;;;23.85;11.95;;;7.90;90.00;;;;;;4937778;28;20459;-69
2022/03/11 03:58:09;;;;;;;15.32;7.93;;;7.80;89.70;;;;;;4938718;28;20490;-69
2022/03/11 04:00:34;;;;;;;17.42;8.18;;;7.80;89.60;;;;;;4948075;28;20422;-69
2022/03/11 04:03:00;;;;;;;15.95;7.43;;;7.80;89.70;;;;;;4950984;28;20798;-69
2022/03/11 04:05:26;;;;;;;22.98;11.70;;;7.80;89.80;;;;;;4944672;28;20043;-69
2022/03/11 04:07:52;;;;;;;14.15;6.43;;;7.80;89.60;;;;;;4944083;28;20077;-69
2022/03/11 04:10:20;;;;;;;17.95;9.90;;;7.80;89.60;;;;;;4959154;28;20427;-70
2022/03/11 04:12:46;;;;;;;23.55;12.38;;;7.80;89.30;;;;;;4978971;28;20070;-69
2022/03/11 04:15:12;;;;;;;16.23;8.85;;;7.70;89.40;;;;;;4949462;28;20031;-69
2022/03/11 04:17:38;;;;;;;10.60;4.85;;;7.70;88.90;;;;;;4950026;28;20043;-69
2022/03/11 04:20:05;;;;;;;10.32;6.65;;;7.70;89.40;;;;;;4938845;28;20035;-69
2022/03/11 04:22:31;;;;;;;21.73;10.90;;;7.70;89.60;;;;;;4950524;28;20371;-69
2022/03/11 04:24:57;;;;;;;8.25;4.95;;;7.60;89.40;;;;;;4950771;28;20100;-69
2022/03/11 04:27:22;;;;;;;17.05;9.52;;;7.70;89.90;;;;;;4952705;28;20039;-69
2022/03/11 04:29:48;;;;;;;24.65;11.48;;;7.60;89.60;;;;;;4931017;28;20407;-69
2022/03/11 04:32:18;;;;;;;23.48;12.55;;;7.60;89.50;;;;;;4932422;28;20450;-69
2022/03/11 04:34:44;;;;;;;21.05;9.73;;;7.60;89.60;;;;;;4969596;28;20100;-69
2022/03/11 04:37:10;;;;;;;21.30;11.18;;;7.50;89.60;;;;;;4971261;28;20122;-69
2022/03/11 04:39:35;;;;;;;13.25;6.50;;;7.50;89.40;;;;;;4950361;28;20036;-69
2022/03/11 04:42:06;;;;;;;23.67;13.55;;;7.60;89.50;;;;;;4949557;28;20055;-69
2022/03/11 04:44:32;;;;;;;21.00;9.80;;;7.50;89.50;;;;;;4950284;28;20035;-69
2022/03/11 04:46:58;;;;;;;22.50;10.50;;;7.50;89.40;;;;;;4950510;28;20051;-69
2022/03/11 04:49:23;;;;;;;16.27;8.07;;;7.50;89.00;;;;;;4949792;28;20031;-69
2022/03/11 04:51:49;;;;;;;13.00;7.25;;;7.50;88.40;;;;;;4951199;28;20418;-69
2022/03/11 04:54:18;;;;;;;17.33;10.27;;;7.40;88.80;;;;;;4950193;28;20419;-69
2022/03/11 04:56:43;;;;;;;19.73;10.80;;;7.30;88.40;;;;;;4949305;28;20034;-69
2022/03/11 04:59:09;;;;;;;21.05;9.65;;;7.30;88.60;;;;;;4945595;28;20039;-69
2022/03/11 05:01:38;;;;;;;16.80;7.60;;;7.30;89.10;;;;;;4931897;28;20040;-69
2022/03/11 05:04:04;;;;;;;25.02;11.23;;;7.30;89.30;;;;;;4941746;28;20530;-69
2022/03/11 05:06:29;;;;;;;17.77;8.32;;;7.30;88.90;;;;;;4943849;28;20066;-69
2022/03/11 05:08:55;;;;;;;9.75;5.57;;;7.20;88.10;;;;;;4931234;28;20063;-69
2022/03/11 05:11:22;;;;;;;19.52;8.98;;;7.20;88.60;;;;;;4983869;28;20060;-69
2022/03/11 05:13:47;;;;;;;19.63;8.57;;;7.20;88.50;;;;;;4956657;28;20031;-69
2022/03/11 05:16:13;;;;;;;20.73;9.95;;;7.20;88.60;;;;;;4953821;28;20031;-69
2022/03/11 05:18:38;;;;;;;16.60;8.27;;;7.10;88.50;;;;;;4944756;28;20824;-69
2022/03/11 05:21:05;;;;;;;19.50;9.90;;;7.10;88.40;;;;;;4956247;28;20513;-69
2022/03/11 05:23:30;;;;;;;22.45;12.35;;;7.10;88.30;;;;;;4956621;28;20035;-69
2022/03/11 05:25:56;;;;;;;14.55;7.90;;;7.10;88.10;;;;;;4958273;28;20051;-69
2022/03/11 05:28:25;;;;;;;17.75;7.63;;;7.00;88.40;;;;;;4946069;28;20048;-69
2022/03/11 05:30:51;;;;;;;14.73;7.55;;;7.10;88.40;;;;;;4953709;28;20137;-69
2022/03/11 05:33:19;;;;;;;13.13;5.60;;;7.00;88.80;;;;;;4944818;28;20043;-69
2022/03/11 05:35:47;;;;;;;21.30;9.90;;;7.00;88.90;;;;;;5009524;28;20033;-69
2022/03/11 05:38:20;;;;;;;16.70;8.95;;;7.00;89.00;;;;;;4943529;28;20406;-69
2022/03/11 05:40:45;;;;;;;22.85;11.23;;;7.00;89.00;;;;;;4945564;28;20035;-69
2022/03/11 05:43:11;;;;;;;14.57;7.38;;;6.90;89.00;;;;;;4976184;28;20487;-68
2022/03/11 05:45:38;;;;;;;16.27;7.03;;;6.90;89.40;;;;;;5033688;28;20030;-68
2022/03/11 05:48:04;;;;;;;26.85;11.98;;;6.90;89.10;;;;;;5010642;28;20045;-68
2022/03/11 05:50:29;;;;;;;16.92;8.52;;;6.90;88.60;;;;;;5019054;28;20056;-69
2022/03/11 05:52:55;;;;;;;23.92;10.85;;;6.80;88.70;;;;;;5020467;28;20055;-70
2022/03/11 05:55:21;;;;;;;17.17;8.63;;;6.80;88.40;;;;;;5013964;28;20079;-69
2022/03/11 05:57:46;;;;;;;9.48;4.47;;;6.80;88.60;;;;;;5035318;28;20448;-69
2022/03/11 06:00:12;;;;;;;13.35;7.88;;;6.80;89.40;;;;;;5023564;28;20372;-68
2022/03/11 06:02:39;;;;;;;21.15;10.15;;;6.70;89.30;;;;;;4955679;28;20119;-69
2022/03/11 06:05:05;;;;;;;14.45;8.60;;;6.70;89.80;;;;;;5000957;28;20036;-69
2022/03/11 06:07:31;;;;;;;18.20;8.68;;;6.70;89.90;;;;;;4996095;28;20093;-71
2022/03/11 06:09:57;;;;;;;20.23;10.00;;;6.70;90.00;;;;;;4939944;28;20474;-70
2022/03/11 06:12:22;;;;;;;21.67;8.65;;;6.70;89.80;;;;;;4944074;28;20031;-70
2022/03/11 06:14:48;;;;;;;13.55;6.20;;;6.70;90.10;;;;;;4939804;28;20557;-69
2022/03/11 06:17:13;;;;;;;16.17;7.80;;;6.70;89.90;;;;;;4945714;28;20111;-69
2022/03/11 06:19:39;;;;;;;17.83;8.52;;;6.60;89.90;;;;;;4981875;28;20021;-67
2022/03/11 06:22:05;;;;;;;18.45;7.68;;;6.60;89.60;;;;;;5009526;28;20382;-68
2022/03/11 06:24:32;;;;;;;18.40;9.05;;;6.60;89.70;;;;;;4952787;28;20543;-67
2022/03/11 06:26:57;;;;;;;16.90;8.15;;;6.60;89.50;;;;;;4959909;28;20039;-68
2022/03/11 06:29:23;;;;;;;24.70;11.82;;;6.60;89.10;;;;;;4957337;28;20035;-69
2022/03/11 06:31:48;;;;;;;23.02;12.40;;;6.50;88.60;;;;;;5021465;28;20021;-68
2022/03/11 06:34:14;;;;;;;23.48;10.80;;;6.50;88.00;;;;;;5020919;28;20052;-68
2022/03/11 06:36:40;;;;;;;15.82;7.50;;;6.40;87.60;;;;;;5012074;28;20126;-68
2022/03/11 06:39:07;;;;;;;21.55;11.30;;;6.40;87.90;;;;;;4992885;28;20509;-67
2022/03/11 06:41:33;;;;;;;27.13;14.45;;;6.40;87.90;;;;;;4960933;28;20039;-70
2022/03/11 06:43:58;;;;;;;23.67;9.73;;;6.40;87.50;;;;;;4945107;28;20035;-67
2022/03/11 06:46:24;;;;;;;19.02;9.43;;;6.40;88.00;;;;;;4955367;28;20031;-68
2022/03/11 06:48:50;;;;;;;22.67;10.88;;;6.30;88.40;;;;;;4999242;28;20033;-68
2022/03/11 06:51:19;;;;;;;33.40;13.57;;;6.30;88.60;;;;;;5018825;28;20475;-68
2022/03/11 06:53:45;;;;;;;17.83;9.30;;;6.30;87.30;;;;;;5031919;28;20030;-68
2022/03/11 06:56:11;;;;;;;13.90;6.70;;;6.30;88.10;;;;;;5019990;28;20073;-71
2022/03/11 06:58:36;;;;;;;17.73;7.90;;;6.20;88.00;;;;;;5020355;28;20061;-68
2022/03/11 07:01:03;;;;;;;25.05;11.85;;;6.30;88.40;;;;;;4968753;28;20032;-68
2022/03/11 07:03:28;;;;;;;24.48;12.27;;;6.30;88.70;;;;;;4941363;28;20467;-68
2022/03/11 07:05:54;;;;;;;28.48;11.05;;;6.30;88.20;;;;;;4981976;28;20036;-68
2022/03/11 07:08:22;;;;;;;25.80;12.55;;;6.30;88.20;;;;;;4981265;28;20033;-68
2022/03/11 07:10:47;;;;;;;28.70;10.65;;;6.20;87.10;;;;;;4982718;28;20039;-67
2022/03/11 07:13:14;;;;;;;22.42;9.95;;;6.20;88.20;;;;;;4971643;28;20120;-68
2022/03/11 07:15:40;;;;;;;25.48;11.43;;;6.20;88.00;;;;;;4951016;28;20077;-72
2022/03/11 07:18:05;;;;;;;25.23;10.88;;;6.20;88.20;;;;;;4931774;28;20129;-69
2022/03/11 07:20:31;;;;;;;16.23;6.18;;;6.20;89.00;;;;;;4936115;28;20550;-68
2022/03/11 07:22:56;;;;;;;19.15;8.82;;;6.20;89.50;;;;;;4950017;28;20072;-68
2022/03/11 07:25:23;;;;;;;23.10;12.07;;;6.20;89.80;;;;;;4952886;28;20433;-68
2022/03/11 07:27:49;;;;;;;21.98;8.43;;;6.30;90.00;;;;;;4949065;28;20042;-68
2022/03/11 07:30:15;;;;;;;10.13;5.15;;;6.30;90.10;;;;;;4943683;28;20039;-68
2022/03/11 07:32:41;;;;;;;10.55;5.68;;;6.30;90.40;;;;;;4950642;28;20039;-68
2022/03/11 07:35:12;;;;;;;22.17;11.15;;;6.30;90.10;;;;;;4951601;28;20034;-68
2022/03/11 07:37:40;;;;;;;15.18;8.00;;;6.30;90.10;;;;;;4940843;28;20027;-69
2022/03/11 07:40:07;;;;;;;7.13;3.97;;;6.40;90.00;;;;;;4947816;28;20033;-69
2022/03/11 07:42:33;;;;;;;14.20;6.88;;;6.30;90.30;;;;;;4951679;28;20063;-68
2022/03/11 07:45:02;;;;;;;8.63;4.80;;;6.40;90.30;;;;;;4955453;28;20107;-70
2022/03/11 07:47:28;;;;;;;11.88;6.18;;;6.40;90.30;;;;;;5002565;28;20080;-69
2022/03/11 07:49:53;;;;;;;22.90;10.82;;;6.40;90.40;;;;;;4983812;28;20077;-68
2022/03/11 07:52:21;;;;;;;13.30;7.25;;;6.40;90.30;;;;;;4940363;28;20047;-68
2022/03/11 07:54:47;;;;;;;16.70;8.13;;;6.50;90.40;;;;;;4945004;28;20069;-69
2022/03/11 07:57:13;;;;;;;10.18;4.85;;;6.50;90.50;;;;;;4965216;28;20039;-70
2022/03/11 07:59:40;;;;;;;8.32;4.68;;;6.50;90.40;;;;;;4980775;28;20034;-69
2022/03/11 08:02:06;;;;;;;11.38;5.97;;;6.50;90.30;;;;;;4994699;28;20090;-69
2022/03/11 08:04:32;;;;;;;20.83;8.82;;;6.50;90.40;;;;;;4951020;28;20081;-69
2022/03/11 08:07:06;;;;;;;12.10;5.85;;;6.50;90.10;;;;;;4950406;28;20046;-69
2022/03/11 08:09:33;;;;;;;19.90;11.20;;;6.50;90.30;;;;;;4951016;28;20432;-69
2022/03/11 08:11:59;;;;;;;22.60;9.45;;;6.50;90.30;;;;;;4963678;28;20039;-69
2022/03/11 08:14:24;;;;;;;10.50;6.05;;;6.60;89.90;;;;;;4944352;28;20032;-74
2022/03/11 08:16:50;;;;;;;17.75;9.40;;;6.50;89.70;;;;;;4944237;28;20100;-68
2022/03/11 08:19:16;;;;;;;10.80;5.72;;;6.50;89.70;;;;;;5002541;28;20041;-70
2022/03/11 08:21:41;;;;;;;19.10;6.97;;;6.50;89.70;;;;;;4979020;28;20446;-71
2022/03/11 08:24:09;;;;;;;19.25;9.35;;;6.50;89.70;;;;;;4933031;28;20032;-69
2022/03/11 08:26:35;;;;;;;14.98;7.47;;;6.60;89.40;;;;;;4943143;28;20035;-68
2022/03/11 08:29:01;;;;;;;22.35;9.15;;;6.60;89.20;;;;;;4937386;28;20054;-69
2022/03/11 08:31:29;;;;;;;21.13;10.32;;;6.60;90.00;;;;;;4950817;28;20039;-68
2022/03/11 08:33:55;;;;;;;8.23;4.05;;;6.60;90.00;;;;;;4950776;28;20034;-69
2022/03/11 08:36:20;;;;;;;21.50;11.93;;;6.70;90.00;;;;;;4940299;28;20767;-69
2022/03/11 08:38:46;;;;;;;25.70;11.80;;;6.70;89.70;;;;;;4937521;28;20063;-69
2022/03/11 08:41:11;;;;;;;23.95;11.40;;;6.70;88.90;;;;;;4961213;28;20049;-69
2022/03/11 08:43:38;;;;;;;22.15;12.25;;;6.70;88.20;;;;;;4983136;28;20078;-65
2022/03/11 08:46:09;;;;;;;13.30;6.35;;;6.70;87.90;;;;;;4945933;28;20425;-65
2022/03/11 08:48:36;;;;;;;30.90;11.48;;;6.80;88.30;;;;;;4949034;28;20043;-65
2022/03/11 08:51:02;;;;;;;16.73;7.80;;;6.80;87.30;;;;;;4950622;28;20197;-65
2022/03/11 08:53:27;;;;;;;22.25;11.35;;;6.90;87.80;;;;;;4950534;28;20126;-65
2022/03/11 08:55:53;;;;;;;11.63;5.93;;;6.90;87.20;;;;;;4932203;28;20111;-65
2022/03/11 08:58:19;;;;;;;20.75;10.57;;;6.90;88.40;;;;;;4942338;28;20105;-65
2022/03/11 09:00:45;;;;;;;26.77;9.52;;;6.90;88.30;;;;;;4937465;28;20093;-65
2022/03/11 09:03:10;;;;;;;14.18;7.47;;;6.90;87.40;;;;;;4949741;28;20030;-65
2022/03/11 09:05:39;;;;;;;21.63;6.38;;;6.90;88.10;;;;;;4944845;28;20497;-65
2022/03/11 09:08:07;;;;;;;25.05;9.50;;;7.00;88.60;;;;;;4942933;28;20043;-65
2022/03/11 09:10:34;;;;;;;17.35;8.52;;;7.00;88.30;;;;;;4945473;28;20037;-65
2022/03/11 09:12:59;;;;;;;12.32;7.07;;;7.00;87.50;;;;;;4938644;28;20126;-65
2022/03/11 09:15:25;;;;;;;22.83;11.20;;;7.10;89.10;;;;;;4949574;28;20123;-65
2022/03/11 09:17:51;;;;;;;18.23;9.43;;;7.10;88.30;;;;;;4930790;28;20471;-65
2022/03/11 09:20:16;;;;;;;28.17;12.60;;;7.10;87.40;;;;;;4945211;28;20071;-65
2022/03/11 09:22:42;;;;;;;24.30;9.38;;;7.20;86.80;;;;;;4950299;28;20036;-65
2022/03/11 09:25:10;;;;;;;18.70;7.00;;;7.20;87.40;;;;;;4949533;28;20522;-66
2022/03/11 09:27:36;;;;;;;25.48;10.30;;;7.20;87.60;;;;;;4951586;28;20511;-65
2022/03/11 09:30:06;;;;;;;20.15;9.27;;;7.20;86.90;;;;;;4932252;28;20038;-65
2022/03/11 09:32:32;;;;;;;33.70;13.82;;;7.30;86.80;;;;;;4939847;28;20093;-65
2022/03/11 09:34:59;;;;;;;23.20;11.57;;;7.30;85.10;;;;;;4949696;28;20031;-65
2022/03/11 09:37:26;;;;;;;21.30;11.50;;;7.30;86.10;;;;;;4949732;28;20459;-65
2022/03/11 09:39:52;;;;;;;7.97;4.38;;;7.40;84.90;;;;;;4950012;28;20031;-65
2022/03/11 09:42:18;;;;;;;19.83;11.07;;;7.30;85.50;;;;;;4950029;28;20039;-66
2022/03/11 09:44:50;;;;;;;33.80;12.43;;;7.40;86.30;;;;;;4932174;28;20024;-65
2022/03/11 09:47:16;;;;;;;22.25;8.88;;;7.50;85.80;;;;;;4942399;28;20243;-65
2022/03/11 09:49:42;;;;;;;22.95;11.52;;;7.50;85.90;;;;;;4949233;28;20028;-65
2022/03/11 09:52:09;;;;;;;20.38;9.57;;;7.60;85.30;;;;;;4948158;28;20038;-65
2022/03/11 09:54:35;;;;;;;23.48;10.27;;;7.70;85.40;;;;;;4949828;28;20027;-65
2022/03/11 09:57:01;;;;;;;18.50;10.20;;;7.70;84.70;;;;;;4937048;28;20639;-65
2022/03/11 09:59:27;;;;;;;20.23;8.88;;;7.80;84.50;;;;;;4952216;28;20047;-66
2022/03/11 10:01:54;;;;;;;19.08;8.52;;;7.80;84.50;;;;;;4941099;28;20034;-65
2022/03/11 10:04:21;;;;;;;13.43;8.32;;;7.90;83.90;;;;;;4940007;28;20463;-69
2022/03/11 10:06:48;;;;;;;26.88;12.80;;;7.90;84.10;;;;;;4952082;28;20078;-69
2022/03/11 10:09:19;;;;;;;21.50;11.35;;;8.00;82.80;;;;;;4953226;28;20032;-68
2022/03/11 10:11:51;;;;;;;18.02;9.00;;;8.10;83.80;;;;;;4954722;28;20040;-68
2022/03/11 10:14:17;;;;;;;21.33;11.68;;;8.10;84.70;;;;;;4938058;28;20690;-69
2022/03/11 10:16:45;;;;;;;20.33;8.65;;;8.20;84.40;;;;;;4952852;28;20042;-69
2022/03/11 10:19:13;;;;;;;23.63;7.88;;;8.20;83.80;;;;;;4952660;28;20035;-68
2022/03/11 10:21:45;;;;;;;19.42;9.90;;;8.20;83.30;;;;;;4952318;28;20038;-68
2022/03/11 10:24:13;;;;;;;22.23;8.65;;;8.20;83.40;;;;;;4935130;28;20040;-69
2022/03/11 10:26:45;;;;;;;23.55;7.13;;;8.30;83.60;;;;;;4956322;28;20131;-68
2022/03/11 10:29:31;;;;;;;30.70;12.07;;;8.30;83.90;;;;;;4951613;28;20097;-68
2022/03/11 10:31:58;;;;;;;12.38;4.20;;;8.40;81.80;;;;;;4952571;28;20027;-69
2022/03/11 10:34:26;;;;;;;12.60;5.68;;;8.40;83.10;;;;;;4951769;28;20035;-69
2022/03/11 10:36:59;;;;;;;16.33;7.90;;;8.40;83.70;;;;;;4952251;28;20042;-69
2022/03/11 10:39:38;;;;;;;22.77;10.80;;;8.50;82.30;;;;;;4952091;28;20533;-69
2022/03/11 10:42:22;;;;;;;17.15;7.20;;;8.50;81.00;;;;;;4951593;28;20494;-69
2022/03/11 10:45:01;;;;;;;13.93;6.13;;;8.60;82.60;;;;;;4934339;28;20488;-70
2022/03/11 10:47:30;;;;;;;17.40;7.85;;;8.60;83.20;;;;;;4959436;28;20059;-70
2022/03/11 10:50:01;;;;;;;23.48;11.25;;;8.60;83.30;;;;;;4951819;28;20027;-67
2022/03/11 10:52:30;;;;;;;23.77;12.23;;;8.70;81.90;;;;;;4952038;28;20506;-69
2022/03/11 10:54:56;;;;;;;16.30;8.90;;;8.70;81.10;;;;;;4951500;28;20161;-70
2022/03/11 10:57:36;;;;;;;20.40;9.35;;;8.70;81.90;;;;;;4962315;28;20136;-69
2022/03/11 11:00:17;;;;;;;16.30;6.57;;;8.80;81.90;;;;;;4994660;28;20131;-74
2022/03/11 11:02:44;;;;;;;21.90;9.98;;;8.80;82.00;;;;;;4951646;28;20031;-75
2022/03/11 11:05:12;;;;;;;14.75;6.95;;;8.80;79.90;;;;;;4952325;28;20035;-72
2022/03/11 11:07:40;;;;;;;20.02;8.77;;;8.90;82.20;;;;;;4951308;28;20051;-69
2022/03/11 11:10:06;;;;;;;27.52;10.02;;;8.90;83.20;;;;;;4969500;28;20491;-69
2022/03/11 11:12:33;;;;;;;18.30;8.23;;;8.90;81.70;;;;;;4963038;28;20114;-69
2022/03/11 11:14:58;;;;;;;19.33;9.02;;;8.90;81.80;;;;;;4980544;28;20034;-69
2022/03/11 11:17:27;;;;;;;20.10;8.48;;;9.00;82.50;;;;;;4986409;28;20104;-69
2022/03/11 11:19:56;;;;;;;29.95;9.95;;;9.10;83.30;;;;;;4981930;28;20561;-69
2022/03/11 11:22:25;;;;;;;12.95;6.57;;;9.10;83.00;;;;;;4984097;28;20047;-69
2022/03/11 11:24:53;;;;;;;12.52;6.40;;;9.20;81.90;;;;;;4938793;28;20118;-69
2022/03/11 11:27:20;;;;;;;18.40;9.05;;;9.20;82.90;;;;;;4961328;28;20040;-69
2022/03/11 11:29:49;;;;;;;22.23;8.57;;;9.20;83.80;;;;;;4938975;28;20413;-69
2022/03/11 11:32:17;;;;;;;8.52;4.38;;;9.30;83.70;;;;;;4948340;28;20038;-69
2022/03/11 11:34:43;;;;;;;14.57;6.45;;;9.30;84.30;;;;;;4980021;28;20023;-69
2022/03/11 11:37:38;;;;;;;20.73;7.60;;;9.30;84.10;;;;;;4934751;28;20370;-68
2022/03/11 11:40:19;;;;;;;17.92;7.95;;;9.40;82.90;;;;;;4950026;28;20028;-68
2022/03/11 11:43:25;;;;;;;20.63;9.35;;;9.40;81.80;;;;;;4939032;28;20063;-69
2022/03/11 11:45:51;;;;;;;;;;;9.50;81.80;;;;;;4946791;28;20048;-68
2022/03/11 11:48:43;;;;;;;22.05;9.85;;;9.50;81.30;;;;;;4961557;28;20175;-69
2022/03/11 11:51:13;;;;;;;13.98;7.63;;;9.50;80.70;;;;;;5000073;28;20042;-69
2022/03/11 11:53:49;;;;;;;23.55;10.60;;;9.60;79.90;;;;;;4951456;28;20027;-69
2022/03/11 11:56:28;;;;;;;16.40;8.15;;;9.60;79.80;;;;;;4946568;28;20028;-69
2022/03/11 11:59:01;;;;;;;15.75;7.15;;;9.70;79.20;;;;;;4965636;28;20470;-68
2022/03/11 12:01:48;;;;;;;17.25;8.68;;;9.70;79.50;;;;;;4959593;28;20050;-68
2022/03/11 12:04:20;;;;;;;16.33;5.97;;;9.70;81.00;;;;;;5006848;28;20473;-68
2022/03/11 12:06:59;;;;;;;14.15;6.55;;;9.80;79.80;;;;;;4962035;28;20122;-74
2022/03/11 12:09:45;;;;;;;13.85;5.90;;;9.80;80.60;;;;;;4951146;28;20107;-70
2022/03/11 12:12:25;;;;;;;10.40;6.10;;;9.90;80.90;;;;;;4952130;28;20043;-74
2022/03/11 12:15:08;;;;;;;19.50;7.32;;;10.00;80.30;;;;;;4951006;28;20379;-69
2022/03/11 12:18:00;;;;;;;26.08;10.75;;;10.00;80.00;;;;;;4956354;28;20035;-67
2022/03/11 12:20:32;;;;;;;13.45;7.38;;;10.00;78.00;;;;;;4930470;28;20483;-68
2022/03/11 12:23:14;;;;;;;18.08;9.82;;;10.10;78.10;;;;;;4945657;28;20050;-68
2022/03/11 12:25:48;;;;;;;13.20;7.80;;;10.20;77.70;;;;;;4954587;28;20026;-68
2022/03/11 12:28:18;;;;;;;21.23;9.43;;;10.20;77.90;;;;;;4950294;28;20081;-68
2022/03/11 12:30:46;;;;;;;21.10;8.70;;;10.20;78.30;;;;;;4977769;28;20031;-68
2022/03/11 12:33:18;;;;;;;12.75;5.05;;;10.30;78.10;;;;;;4994062;28;20092;-67
2022/03/11 12:35:45;;;;;;;16.48;6.38;;;10.30;79.20;;;;;;4993760;28;20030;-68
2022/03/11 12:38:22;;;;;;;21.63;7.97;;;10.40;80.30;;;;;;5015046;28;20067;-68
2022/03/11 12:40:49;;;;;;;13.85;6.20;;;10.50;77.30;;;;;;4970130;28;20028;-67
2022/03/11 12:43:16;;;;;;;18.73;9.88;;;10.50;78.90;;;;;;5002242;28;20092;-71
2022/03/11 12:45:51;;;;;;;12.48;7.00;;;10.50;77.10;;;;;;4950218;28;20073;-69
2022/03/11 12:48:22;;;;;;;9.88;4.35;;;10.60;78.70;;;;;;4949584;28;20058;-69